createdAt,value
2018-11-23T00:01:32.745Z,35.30
2018-11-23T00:04:02.831Z,44.77
2018-11-23T00:06:33.019Z,40.40
2018-11-23T00:09:03.289Z,47.77
2018-11-23T00:11:33.461Z,47.97
2018-11-23T00:14:03.607Z,39.37
2018-11-23T00:16:33.780Z,40.67
2018-11-23T00:19:03.869Z,35.10
2018-11-23T00:21:33.997Z,34.13
2018-11-23T00:24:04.094Z,41.07
2018-11-23T00:26:34.241Z,33.93
2018-11-23T00:29:04.382Z,39.13
2018-11-23T00:31:34.469Z,39.30
2018-11-23T00:34:04.604Z,41.30
2018-11-23T00:36:34.742Z,49.23
2018-11-23T00:39:05.679Z,35.80
2018-11-23T00:41:35.876Z,42.60
2018-11-23T00:44:06.654Z,45.57
2018-11-23T00:46:36.773Z,37.17
2018-11-23T00:49:07.078Z,42.80
2018-11-23T00:51:37.174Z,32.30
2018-11-23T00:54:07.336Z,37.40
2018-11-23T00:56:37.463Z,45.70
2018-11-23T00:59:07.872Z,37.90
2018-11-23T01:01:43.011Z,37.53
2018-11-23T01:04:13.163Z,37.07
2018-11-23T01:06:43.333Z,36.40
2018-11-23T01:09:15.025Z,39.27
2018-11-23T01:11:45.157Z,33.77
2018-11-23T01:14:15.290Z,31.30
2018-11-23T01:16:45.354Z,35.33
2018-11-23T01:19:15.499Z,36.23
2018-11-23T01:21:45.597Z,37.87
2018-11-23T01:24:15.705Z,42.47
2018-11-23T01:26:45.909Z,38.13
2018-11-23T01:29:16.018Z,44.17
2018-11-23T01:31:46.159Z,35.90
2018-11-23T01:34:16.315Z,41.17
2018-11-23T01:36:46.506Z,43.93
2018-11-23T01:39:16.619Z,46.10
2018-11-23T01:41:46.791Z,48.83
2018-11-23T01:44:16.945Z,39.57
2018-11-23T01:46:47.084Z,39.97
2018-11-23T01:49:17.165Z,43.67
2018-11-23T01:51:47.346Z,39.40
2018-11-23T01:54:17.525Z,38.23
2018-11-23T01:56:47.680Z,34.07
2018-11-23T01:59:17.795Z,37.07
2018-11-23T02:01:47.956Z,40.70
2018-11-23T02:04:18.154Z,41.70
2018-11-23T02:06:48.247Z,46.70
2018-11-23T02:09:19.481Z,41.00
2018-11-23T02:11:49.684Z,35.43
2018-11-23T02:14:19.815Z,31.00
2018-11-23T02:16:50.001Z,34.87
2018-11-23T02:19:20.463Z,53.17
2018-11-23T02:21:50.939Z,39.33
2018-11-23T02:24:21.079Z,35.97
2018-11-23T02:26:51.248Z,32.27
2018-11-23T02:29:21.379Z,37.73
2018-11-23T02:31:51.635Z,37.37
2018-11-23T02:34:21.726Z,36.10
2018-11-23T02:36:51.875Z,37.50
2018-11-23T02:39:22.036Z,34.03
2018-11-23T02:41:52.148Z,40.97
2018-11-23T02:44:22.273Z,33.07
2018-11-23T02:46:52.404Z,35.00
2018-11-23T02:49:22.507Z,36.43
2018-11-23T02:51:52.714Z,40.93
2018-11-23T02:54:22.944Z,42.37
2018-11-23T02:56:53.166Z,38.63
2018-11-23T02:59:24.041Z,44.90
2018-11-23T03:01:53.524Z,45.47
2018-11-23T03:04:23.668Z,44.23
2018-11-23T03:06:53.877Z,45.57
2018-11-23T03:09:24.009Z,41.00
2018-11-23T03:11:54.174Z,54.10
2018-11-23T03:14:24.304Z,42.37
2018-11-23T03:16:54.465Z,47.30
2018-11-23T03:19:24.591Z,51.53
2018-11-23T03:21:54.787Z,40.50
2018-11-23T03:24:24.906Z,40.90
2018-11-23T03:26:55.062Z,39.67
2018-11-23T03:29:25.196Z,41.30
2018-11-23T03:31:55.541Z,40.43
2018-11-23T03:34:25.699Z,39.10
2018-11-23T03:36:55.816Z,35.20
2018-11-23T03:39:25.919Z,37.80
2018-11-23T03:41:56.102Z,46.60
2018-11-23T03:44:26.218Z,46.13
2018-11-23T03:46:56.506Z,43.50
2018-11-23T03:49:26.589Z,44.63
2018-11-23T03:51:56.701Z,49.10
2018-11-23T03:54:26.846Z,40.37
2018-11-23T03:56:56.941Z,48.30
2018-11-23T03:59:27.044Z,45.73
2018-11-23T04:01:57.225Z,49.70
2018-11-23T04:04:27.360Z,49.67
2018-11-23T04:06:57.535Z,52.97
2018-11-23T04:09:27.653Z,43.10
2018-11-23T04:11:57.782Z,45.73
2018-11-23T04:14:27.912Z,46.27
2018-11-23T04:16:58.022Z,44.70
2018-11-23T04:19:28.113Z,46.37
2018-11-23T04:21:58.286Z,42.87
2018-11-23T04:24:28.449Z,51.87
2018-11-23T04:26:58.579Z,55.53
2018-11-23T04:29:28.682Z,49.03
2018-11-23T04:31:58.817Z,52.27
2018-11-23T04:34:28.995Z,58.53
2018-11-23T04:36:59.143Z,45.00
2018-11-23T04:39:29.268Z,44.03
2018-11-23T04:41:59.419Z,45.37
2018-11-23T04:44:29.477Z,47.00
2018-11-23T04:46:59.571Z,42.83
2018-11-23T04:49:29.695Z,46.30
2018-11-23T04:51:59.974Z,39.10
2018-11-23T04:54:30.152Z,41.43
2018-11-23T04:57:00.347Z,42.23
2018-11-23T04:59:30.501Z,41.47
2018-11-23T05:02:00.627Z,47.90
2018-11-23T05:04:30.755Z,47.57
2018-11-23T05:07:00.930Z,41.40
2018-11-23T05:09:31.046Z,45.17
2018-11-23T05:12:01.200Z,34.97
2018-11-23T05:14:31.355Z,40.57
2018-11-23T05:17:01.597Z,43.20
2018-11-23T05:19:31.724Z,55.73
2018-11-23T05:22:01.918Z,43.30
2018-11-23T05:24:32.018Z,48.10
2018-11-23T05:27:02.185Z,48.40
2018-11-23T05:29:32.298Z,51.40
2018-11-23T05:32:02.403Z,53.67
2018-11-23T05:34:32.505Z,47.20
2018-11-23T05:37:02.767Z,44.50
2018-11-23T05:39:32.969Z,48.63
2018-11-23T05:42:03.090Z,42.00
2018-11-23T05:44:33.247Z,50.10
2018-11-23T05:47:03.388Z,48.63
2018-11-23T05:49:33.495Z,46.77
2018-11-23T05:52:03.677Z,50.87
2018-11-23T05:54:33.807Z,47.57
2018-11-23T05:57:03.950Z,46.57
2018-11-23T05:59:34.025Z,34.77
2018-11-23T06:02:04.197Z,40.43
2018-11-23T06:04:34.293Z,46.40
2018-11-23T06:07:04.423Z,48.70
2018-11-23T06:09:34.823Z,52.60
2018-11-23T06:12:04.945Z,44.97
2018-11-23T06:14:35.082Z,45.90
2018-11-23T06:17:05.268Z,51.80
2018-11-23T06:19:35.421Z,45.23
2018-11-23T06:22:05.706Z,51.03
2018-11-23T06:24:35.793Z,40.90
2018-11-23T06:27:06.808Z,48.20
2018-11-23T06:29:36.931Z,47.67
2018-11-23T06:32:22.570Z,53.63
2018-11-23T06:34:52.717Z,40.47
2018-11-23T06:37:22.831Z,59.87
2018-11-23T06:39:53.455Z,49.90
2018-11-23T06:42:23.665Z,57.53
2018-11-23T06:44:53.775Z,59.23
2018-11-23T06:47:23.979Z,58.93
2018-11-23T06:49:54.040Z,54.13
2018-11-23T06:52:24.202Z,49.07
2018-11-23T06:54:54.355Z,56.33
2018-11-23T06:57:24.505Z,54.57
2018-11-23T06:59:54.712Z,48.83
2018-11-23T07:02:24.973Z,48.90
2018-11-23T07:04:55.105Z,47.67
2018-11-23T07:07:25.249Z,42.27
2018-11-23T07:09:55.374Z,47.37
2018-11-23T07:12:25.501Z,59.20
2018-11-23T07:14:55.624Z,45.97
2018-11-23T07:17:25.932Z,54.53
2018-11-23T07:19:56.028Z,48.90
2018-11-23T07:22:26.149Z,45.40
2018-11-23T07:24:56.373Z,54.23
2018-11-23T07:27:26.520Z,42.53
2018-11-23T07:29:56.684Z,64.43
2018-11-23T07:32:26.799Z,62.13
2018-11-23T07:34:56.955Z,63.27
2018-11-23T07:37:27.868Z,54.57
2018-11-23T07:41:16.273Z,53.43
2018-11-23T07:43:46.539Z,43.80
2018-11-23T07:46:16.732Z,53.67
2018-11-23T07:48:46.899Z,52.83
2018-11-23T07:51:17.016Z,48.30
2018-11-23T07:53:47.128Z,51.50
2018-11-23T07:56:17.267Z,41.80
2018-11-23T07:58:47.507Z,73.43
2018-11-23T08:01:17.617Z,53.60
2018-11-23T08:03:47.811Z,50.43
2018-11-23T08:06:17.941Z,64.07
2018-11-23T08:08:48.098Z,62.10
2018-11-23T08:11:18.229Z,41.07
2018-11-23T08:13:49.005Z,50.80
2018-11-23T08:16:19.149Z,66.80
2018-11-23T08:18:49.350Z,62.20
2018-11-23T08:21:19.465Z,76.00
2018-11-23T08:23:49.620Z,72.53
2018-11-23T08:26:19.685Z,62.07
2018-11-23T08:28:49.881Z,65.40
2018-11-23T08:31:19.967Z,67.37
2018-11-23T08:33:50.173Z,53.43
2018-11-23T08:36:20.255Z,45.93
2018-11-23T08:38:50.332Z,44.53
2018-11-23T08:41:20.492Z,43.33
2018-11-23T08:43:50.635Z,43.60
2018-11-23T08:46:20.993Z,45.77
2018-11-23T08:48:51.297Z,40.47
2018-11-23T08:51:21.417Z,40.07
2018-11-23T08:53:51.558Z,38.70
2018-11-23T08:56:21.772Z,42.83
2018-11-23T08:58:52.146Z,36.43
2018-11-23T09:01:22.570Z,32.57
2018-11-23T09:03:53.037Z,36.20
2018-11-23T09:06:23.135Z,35.10
2018-11-23T09:08:53.305Z,39.20
2018-11-23T09:11:23.546Z,34.67
2018-11-23T09:13:53.716Z,33.30
2018-11-23T09:16:23.870Z,30.03
2018-11-23T09:18:54.095Z,32.13
2018-11-23T09:21:24.218Z,35.93
2018-11-23T09:23:54.397Z,42.93
2018-11-23T09:26:24.619Z,43.20
2018-11-23T09:28:54.747Z,44.17
2018-11-23T09:31:24.876Z,40.50
2018-11-23T09:33:55.447Z,35.67
2018-11-23T09:36:25.522Z,37.40
2018-11-23T09:38:55.720Z,41.77
2018-11-23T09:41:25.830Z,41.87
2018-11-23T09:43:56.102Z,38.60
2018-11-23T09:46:26.288Z,36.40
2018-11-23T09:48:56.400Z,44.80
2018-11-23T09:51:26.592Z,41.57
2018-11-23T09:53:56.748Z,37.97
2018-11-23T09:56:26.917Z,44.97
2018-11-23T09:58:57.073Z,41.00
2018-11-23T10:01:32.806Z,38.60
2018-11-23T10:04:03.013Z,45.10
2018-11-23T10:06:33.120Z,43.13
2018-11-23T10:09:04.252Z,44.20
2018-11-23T10:11:34.325Z,47.20
2018-11-23T10:14:04.464Z,40.47
2018-11-23T10:16:34.495Z,38.23
2018-11-23T10:19:04.724Z,47.83
2018-11-23T10:21:34.930Z,42.80
2018-11-23T10:24:05.497Z,40.87
2018-11-23T10:26:35.793Z,34.43
2018-11-23T10:29:06.172Z,38.07
2018-11-23T10:31:36.393Z,39.00
2018-11-23T10:34:06.988Z,39.03
2018-11-23T10:36:37.312Z,34.80
2018-11-23T10:39:08.835Z,37.43
2018-11-23T10:41:39.081Z,37.87
2018-11-23T10:44:09.278Z,37.40
2018-11-23T10:49:10.039Z,40.83
2018-11-23T10:51:40.342Z,31.43
2018-11-23T10:54:10.586Z,34.73
2018-11-23T10:56:40.737Z,29.73
2018-11-23T10:59:10.879Z,35.37
2018-11-23T11:01:46.222Z,37.37
2018-11-23T11:04:21.525Z,33.50
2018-11-23T11:06:53.391Z,35.30
2018-11-23T11:09:23.608Z,30.27
2018-11-23T11:11:53.776Z,30.13
2018-11-23T11:14:23.894Z,33.33
2018-11-23T11:16:54.126Z,44.37
2018-11-23T11:19:24.253Z,45.30
2018-11-23T11:21:54.437Z,32.83
2018-11-23T11:24:24.795Z,30.33
2018-11-23T11:26:55.086Z,33.57
2018-11-23T11:29:25.320Z,33.70
2018-11-23T11:31:55.463Z,33.83
2018-11-23T11:34:25.640Z,36.43
2018-11-23T11:36:55.838Z,37.33
2018-11-23T11:39:25.986Z,33.17
2018-11-23T11:41:56.079Z,38.57
2018-11-23T11:44:26.410Z,37.30
2018-11-23T11:46:56.562Z,31.20
2018-11-23T11:49:26.872Z,41.90
2018-11-23T11:51:57.107Z,34.07
2018-11-23T11:54:27.545Z,34.13
2018-11-23T11:56:57.684Z,33.77
2018-11-23T11:59:27.961Z,31.13
2018-11-23T12:01:58.223Z,36.90
2018-11-23T12:04:28.489Z,35.23
2018-11-23T12:06:58.608Z,38.20
2018-11-23T12:09:28.826Z,35.57
2018-11-23T12:11:58.995Z,37.03
2018-11-23T12:14:29.250Z,38.37
2018-11-23T12:16:59.418Z,28.60
2018-11-23T12:19:29.707Z,36.27
2018-11-23T12:22:00.202Z,39.63
2018-11-23T12:24:30.382Z,33.10
2018-11-23T12:27:00.706Z,31.43
2018-11-23T12:29:30.867Z,35.63
2018-11-23T12:32:01.120Z,31.13
2018-11-23T12:34:31.339Z,31.70
2018-11-23T12:37:01.437Z,29.10
2018-11-23T12:39:31.605Z,33.37
2018-11-23T12:42:01.974Z,32.77
2018-11-23T12:44:32.185Z,32.13
2018-11-23T12:47:02.415Z,30.93
2018-11-23T12:49:32.587Z,35.83
2018-11-23T12:52:02.764Z,28.97
2018-11-23T12:54:32.891Z,40.87
2018-11-23T12:57:03.065Z,30.87
2018-11-23T12:59:33.372Z,40.20
2018-11-23T13:02:03.564Z,32.20
2018-11-23T13:04:33.870Z,46.27
2018-11-23T13:07:04.068Z,33.00
2018-11-23T13:09:34.442Z,33.70
2018-11-23T13:12:04.569Z,37.67
2018-11-23T13:14:34.932Z,28.70
2018-11-23T13:17:05.155Z,30.43
2018-11-23T13:19:35.365Z,33.50
2018-11-23T13:22:05.708Z,35.07
2018-11-23T13:24:35.843Z,33.27
2018-11-23T13:27:10.642Z,38.03
2018-11-23T13:29:40.743Z,34.27
2018-11-23T13:32:10.878Z,30.83
2018-11-23T13:34:41.181Z,31.60
2018-11-23T13:37:11.382Z,31.53
2018-11-23T13:39:41.547Z,35.50
2018-11-23T13:42:12.043Z,27.37
2018-11-23T13:44:42.341Z,34.33
2018-11-23T13:47:12.576Z,35.47
2018-11-23T13:49:42.823Z,36.77
2018-11-23T13:52:12.968Z,37.77
2018-11-23T13:54:43.222Z,38.00
2018-11-23T13:57:13.407Z,34.87
2018-11-23T13:59:43.707Z,38.70
2018-11-23T14:02:13.972Z,38.10
2018-11-23T14:04:44.200Z,39.60
2018-11-23T14:07:14.402Z,39.27
2018-11-23T14:09:44.569Z,35.70
2018-11-23T14:12:14.638Z,39.47
2018-11-23T14:14:44.799Z,37.17
2018-11-23T14:17:14.964Z,40.43
2018-11-23T14:19:45.198Z,35.63
2018-11-23T14:22:15.747Z,37.87
2018-11-23T14:24:45.854Z,34.90
2018-11-23T14:27:16.189Z,35.50
2018-11-23T14:29:46.397Z,33.83
2018-11-23T14:32:16.656Z,38.47
2018-11-23T14:34:46.971Z,36.70
2018-11-23T14:37:17.202Z,33.23
2018-11-23T14:39:47.472Z,34.50
2018-11-23T14:42:17.604Z,32.97
2018-11-23T14:44:47.905Z,31.80
2018-11-23T14:47:18.192Z,36.07
2018-11-23T14:49:48.468Z,32.33
2018-11-23T14:52:18.705Z,36.97
2018-11-23T14:54:49.037Z,30.90
2018-11-23T14:57:19.298Z,31.87
2018-11-23T14:59:49.555Z,31.00
2018-11-23T15:02:20.327Z,31.90
2018-11-23T15:04:51.045Z,32.37
2018-11-23T15:07:21.583Z,30.60
2018-11-23T15:09:51.746Z,35.60
2018-11-23T15:12:21.890Z,35.80
2018-11-23T15:14:52.216Z,33.77
2018-11-23T15:17:22.432Z,36.27
2018-11-23T15:19:52.711Z,39.23
2018-11-23T15:22:23.248Z,41.33
2018-11-23T15:24:54.151Z,48.27
2018-11-23T15:27:24.388Z,45.20
2018-11-23T15:29:54.648Z,47.37
2018-11-23T15:32:24.875Z,45.10
2018-11-23T15:34:55.007Z,47.80
2018-11-23T15:37:25.394Z,36.00
2018-11-23T15:39:55.822Z,42.03
2018-11-23T15:42:25.998Z,40.93
2018-11-23T15:44:56.145Z,43.30
2018-11-23T15:47:26.304Z,40.73
2018-11-23T15:49:56.483Z,42.70
2018-11-23T15:52:26.634Z,37.60
2018-11-23T15:54:56.803Z,45.57
2018-11-23T15:57:26.900Z,44.83
2018-11-23T15:59:56.979Z,39.50
2018-11-23T16:02:27.101Z,44.70
2018-11-23T16:04:57.220Z,52.23
2018-11-23T16:07:27.412Z,46.07
2018-11-23T16:09:57.609Z,40.87
2018-11-23T16:12:27.769Z,42.20
2018-11-23T16:14:57.878Z,42.90
2018-11-23T16:17:28.035Z,36.07
2018-11-23T16:19:58.126Z,46.27
2018-11-23T16:22:28.308Z,36.70
2018-11-23T16:24:58.505Z,36.03
2018-11-23T16:27:28.665Z,40.33
2018-11-23T16:29:58.828Z,36.87
2018-11-23T16:32:28.964Z,35.73
2018-11-23T16:34:59.794Z,45.70
2018-11-23T16:37:29.989Z,35.03
2018-11-23T16:40:00.181Z,39.03
2018-11-23T16:42:30.513Z,35.93
2018-11-23T16:45:00.733Z,37.37
2018-11-23T16:47:30.836Z,34.30
2018-11-23T16:50:01.130Z,34.00
2018-11-23T16:52:31.179Z,36.90
2018-11-23T16:55:01.524Z,39.60
2018-11-23T16:57:31.656Z,36.97
2018-11-23T17:00:01.955Z,30.63
2018-11-23T17:02:32.281Z,31.40
2018-11-23T17:05:02.393Z,34.87
2018-11-23T17:07:32.482Z,37.73
2018-11-23T17:10:02.892Z,34.87
2018-11-23T17:12:33.091Z,37.20
2018-11-23T17:15:03.270Z,37.47
2018-11-23T17:17:34.132Z,35.40
2018-11-23T17:20:04.411Z,39.60
2018-11-23T17:22:34.564Z,35.83
2018-11-23T17:25:04.775Z,37.90
2018-11-23T17:27:34.901Z,43.67
2018-11-23T17:30:05.496Z,35.70
2018-11-23T17:32:35.591Z,39.97
2018-11-23T17:35:06.696Z,32.77
2018-11-23T17:37:37.608Z,39.47
2018-11-23T17:40:10.172Z,37.60
2018-11-23T17:42:40.406Z,34.90
2018-11-23T17:45:22.702Z,34.13
2018-11-23T17:47:53.876Z,35.80
2018-11-23T17:50:26.129Z,33.20
2018-11-23T17:52:56.790Z,39.30
2018-11-23T17:55:27.176Z,33.17
2018-11-23T17:57:58.104Z,43.30
2018-11-23T18:00:30.348Z,36.63
2018-11-23T18:03:01.766Z,36.90
2018-11-23T18:05:32.829Z,37.13
2018-11-23T18:08:05.225Z,38.47
2018-11-23T18:10:35.794Z,42.00
2018-11-23T18:13:05.990Z,40.03
2018-11-23T18:15:36.620Z,39.83
2018-11-23T18:18:07.753Z,40.97
2018-11-23T18:20:37.871Z,34.90
2018-11-23T18:23:08.288Z,38.60
2018-11-23T18:25:40.097Z,38.53
2018-11-23T18:28:10.283Z,39.40
2018-11-23T18:30:40.514Z,35.80
2018-11-23T18:33:10.681Z,40.43
2018-11-23T18:35:40.890Z,36.33
2018-11-23T18:38:11.024Z,38.03
2018-11-23T18:40:41.134Z,37.67
2018-11-23T18:43:11.292Z,40.03
2018-11-23T18:45:41.427Z,39.40
2018-11-23T18:48:11.567Z,52.80
2018-11-23T18:50:41.843Z,56.13
2018-11-23T18:53:12.030Z,38.10
2018-11-23T18:55:42.154Z,35.00
2018-11-23T18:58:12.391Z,42.93
2018-11-23T19:00:42.552Z,39.43
2018-11-23T19:03:12.611Z,31.87
2018-11-23T19:05:42.685Z,36.47
2018-11-23T19:08:12.736Z,37.40
2018-11-23T19:10:42.835Z,41.50
2018-11-23T19:13:12.907Z,44.03
2018-11-23T19:15:43.033Z,40.53
2018-11-23T19:18:20.866Z,35.90
2018-11-23T19:20:51.203Z,38.70
2018-11-23T19:23:21.332Z,35.70
2018-11-23T19:25:51.484Z,43.70
2018-11-23T19:28:21.621Z,37.60
2018-11-23T19:30:51.758Z,37.07
2018-11-23T19:33:21.958Z,44.27
2018-11-23T19:35:52.062Z,36.40
2018-11-23T19:38:22.232Z,45.80
2018-11-23T19:40:52.339Z,48.17
2018-11-23T19:43:22.461Z,43.97
2018-11-23T19:45:52.529Z,49.90
2018-11-23T19:48:22.723Z,42.67
2018-11-23T19:51:00.163Z,44.03
2018-11-23T19:53:30.201Z,46.90
2018-11-23T19:56:00.314Z,41.37
2018-11-23T19:58:30.388Z,40.93
2018-11-23T20:01:00.520Z,49.10
2018-11-23T20:03:30.645Z,40.20
2018-11-23T20:06:01.070Z,40.50
2018-11-23T20:08:31.177Z,55.47
2018-11-23T20:11:01.337Z,38.77
2018-11-23T20:13:31.473Z,52.10
2018-11-23T20:16:01.660Z,44.27
2018-11-23T20:18:40.799Z,53.40
2018-11-23T20:21:12.285Z,56.77
2018-11-23T20:23:45.893Z,61.63
2018-11-23T20:26:17.727Z,51.33
2018-11-23T20:28:49.522Z,57.17
2018-11-23T20:31:21.109Z,56.00
2018-11-23T20:33:57.731Z,56.67
2018-11-23T20:36:29.081Z,44.63
2018-11-23T20:39:00.304Z,61.20
2018-11-23T20:41:31.747Z,65.43
2018-11-23T20:44:01.870Z,64.00
2018-11-23T20:46:32.511Z,55.90
2018-11-23T20:49:03.967Z,49.07
2018-11-23T20:51:34.223Z,50.90
2018-11-23T20:54:04.280Z,45.40
2018-11-23T20:56:34.377Z,44.57
2018-11-23T20:59:04.539Z,48.10
2018-11-23T21:01:34.641Z,58.30
2018-11-23T21:04:04.725Z,47.07
2018-11-23T21:06:34.868Z,52.03
2018-11-23T21:09:07.532Z,53.87
2018-11-23T21:11:37.622Z,49.17
2018-11-23T21:14:07.930Z,48.33
2018-11-23T21:16:38.085Z,48.77
2018-11-23T21:19:08.202Z,45.50
2018-11-23T21:21:38.282Z,50.63
2018-11-23T21:24:08.370Z,45.37
2018-11-23T21:26:38.542Z,44.97
2018-11-23T21:29:08.586Z,49.57
2018-11-23T21:31:38.736Z,48.23
2018-11-23T21:34:08.790Z,44.83
2018-11-23T21:36:38.880Z,50.67
2018-11-23T21:39:13.796Z,46.53
2018-11-23T21:41:41.036Z,48.20
2018-11-23T21:44:11.147Z,50.43
2018-11-23T21:46:41.278Z,41.40
2018-11-23T21:49:11.378Z,45.00
2018-11-23T21:51:41.511Z,46.23
2018-11-23T21:54:11.663Z,46.90
2018-11-23T21:56:41.888Z,48.57
2018-11-23T21:59:11.993Z,51.10
2018-11-23T22:01:42.071Z,48.17
2018-11-23T22:04:12.098Z,42.50
2018-11-23T22:06:42.220Z,44.73
2018-11-23T22:09:12.255Z,39.87
2018-11-23T22:11:42.420Z,38.93
2018-11-23T22:14:12.485Z,40.77
2018-11-23T22:16:42.582Z,51.27
2018-11-23T22:19:12.661Z,44.33
2018-11-23T22:21:42.820Z,41.13
2018-11-23T22:24:12.972Z,52.03
2018-11-23T22:26:43.072Z,41.33
2018-11-23T22:29:13.130Z,49.37
2018-11-23T22:31:43.275Z,49.20
2018-11-23T22:34:13.374Z,54.47
2018-11-23T22:36:43.509Z,51.87
2018-11-23T22:39:13.568Z,62.33
2018-11-23T22:41:43.686Z,49.60
2018-11-23T22:44:13.775Z,49.07
2018-11-23T22:46:43.919Z,42.53
2018-11-23T22:49:13.980Z,39.80
2018-11-23T22:51:44.061Z,48.70
2018-11-23T22:54:14.077Z,44.63
2018-11-23T22:56:44.125Z,45.13
2018-11-23T22:59:14.261Z,42.27
2018-11-23T23:01:44.345Z,52.77
2018-11-23T23:04:14.471Z,47.90
2018-11-23T23:06:44.521Z,52.53
2018-11-23T23:09:14.590Z,48.20
2018-11-23T23:11:44.643Z,57.57
2018-11-23T23:14:14.711Z,48.37
2018-11-23T23:16:44.895Z,49.70
2018-11-23T23:19:15.432Z,56.20
2018-11-23T23:21:45.586Z,47.47
2018-11-23T23:24:15.696Z,48.40
2018-11-23T23:26:45.888Z,52.37
2018-11-23T23:29:15.997Z,41.73
2018-11-23T23:31:46.081Z,51.07
2018-11-23T23:34:16.142Z,56.20
2018-11-23T23:36:46.293Z,42.60
2018-11-23T23:39:16.416Z,44.17
2018-11-23T23:41:46.520Z,44.83
2018-11-23T23:44:16.566Z,39.70
2018-11-23T23:46:46.697Z,42.77
2018-11-23T23:49:16.805Z,39.23
2018-11-23T23:51:46.865Z,41.33
2018-11-23T23:54:16.974Z,43.23
2018-11-23T23:56:47.193Z,41.30
2018-11-23T23:59:17.271Z,49.03
